• Join FlightAware (Why Join?)
  • Login
  • US Flag 
04:34PM EDT


 

Airport Tracker/Info


-or-


 

Live Flight TrackerFlight Track Log ✈ UAL33 ✈ 03-Jul-2013 ✈ KORD - KIAH

Flight Track Log - Related Links

Times and Time Zones

All times are in EDT time to prevent confusion due to time zone crossing. See the UAL33 flight status page for this flight to view local times or setup timezone preferences in your user account.

Time Position Orientation Groundspeed Altitude Reporting Facility
EDT Latitude Longitude Course Direction KTS MPH feet Rate Location/Type
10:31PM 41.9690 -87.9200 271° West 159 183 1,300  Level FlightAware
10:31PM 41.9580 -87.9510 244° Southwest 188 216 2,600 2,400 Climbing FlightAware
10:32PM 41.9410 -87.9750 226° Southwest 225 259 3,700 2,760 Climbing FlightAware
10:32PM 41.9190 -88.0060 226° Southwest 258 297 5,000 3,240 Climbing FlightAware
10:33PM 41.9020 -88.0240 218° Southwest 263 303 6,200 3,960 Climbing FlightAware
10:33PM 41.8720 -88.0350 195° South 266 306 8,000 3,900 Climbing FlightAware
10:33PM 41.8350 -88.0340 179° South 275 316 9,800 3,840 Climbing FlightAware
10:34PM 41.7880 -88.0330 179° South 287 330 12,100 3,540 Climbing FlightAware
10:35PM 41.7360 -88.0320 179° South 296 341 14,200 2,880 Climbing FlightAware
10:35PM 41.6740 -88.0320 180° South 329 379 16,000 2,760 Climbing FlightAware
10:36PM 41.6200 -88.0310 179° South 346 398 17,900 2,220 Climbing FlightAware
10:37PM 41.5470 -88.0310 180° South 400 460 18,900 1,440 Climbing FlightAware
10:37PM 41.4610 -88.0300 180° South 443 510 20,000 1,800 Climbing FlightAware
10:38PM 41.3780 -88.0400 185° South 461 531 21,500 2,400 Climbing FlightAware
10:39PM 41.2830 -88.0720 194° South 472 543 23,400 2,460 Climbing FlightAware
10:40PM 41.1950 -88.1060 196° South 480 552 25,100 2,460 Climbing FlightAware
10:40PM 41.1090 -88.1600 205° Southwest 480 552 26,900 2,340 Climbing FlightAware
10:41PM 41.0450 -88.2040 207° Southwest 478 550 28,100 1,620 Climbing FlightAware
10:42PM 40.9600 -88.2620 207° Southwest 462 532 29,000 1,560 Climbing FlightAware
10:42PM 40.8830 -88.3160 208° Southwest 449 517 30,300 2,880 Climbing FlightAware
10:43PM 40.8170 -88.3600 207° Southwest 419 482 32,800 3,300 Climbing FlightAware
10:43PM 40.7500 -88.4060 207° Southwest 397 457 34,600 2,400 Climbing FlightAware
10:44PM 40.6830 -88.4520 208° Southwest 389 448 36,100 1,920 Climbing FlightAware
10:45PM 40.6220 -88.4940 208° Southwest 385 443 37,200 1,620 Climbing FlightAware
10:46PM 40.5480 -88.5430 207° Southwest 380 437 38,400 1,260 Climbing FlightAware
10:46PM 40.4860 -88.5860 208° Southwest 382 440 39,100 840 Climbing FlightAware
10:47PM 40.4160 -88.6330 207° Southwest 393 452 39,600 540 Climbing FlightAware
10:48PM 40.3480 -88.6790 207° Southwest 401 461 39,900 420 Climbing FlightAware
10:48PM 40.2890 -88.7190 207° Southwest 404 465 40,200 360 Climbing FlightAware
10:49PM 40.2250 -88.7620 207° Southwest 414 476 40,400 300 Climbing FlightAware
10:50PM 40.1470 -88.8140 207° Southwest 422 486 40,700 360 Climbing FlightAware
10:50PM 40.0880 -88.8530 207° Southwest 429 494 40,900 180 Climbing FlightAware
10:51PM 40.0100 -88.9050 207° Southwest 431 496 41,000 60 Climbing FlightAware
10:52PM 39.9390 -88.9530 207° Southwest 433 498 41,000  Level FlightAware
10:52PM 39.8650 -89.0020 207° Southwest 434 499 41,000  Level FlightAware
10:53PM 39.7850 -89.0550 207° Southwest 435 501 41,000  Level FlightAware
10:54PM 39.7190 -89.0980 207° Southwest 437 503 41,000  Level FlightAware
10:54PM 39.6370 -89.1530 207° Southwest 438 504 41,000  Level FlightAware
10:55PM 39.5470 -89.2110 206° Southwest 438 504 41,000  Level FlightAware
10:56PM 39.4560 -89.2720 207° Southwest 438 504 41,000  Level FlightAware
10:57PM 39.4030 -89.3050 206° Southwest 439 505 41,000  Level FlightAware
10:58PM 39.3020 -89.3720 207° Southwest 437 503 41,000  Level FlightAware
10:58PM 39.2030 -89.4360 207° Southwest 433 498 41,000  Level FlightAware
10:59PM 39.1410 -89.4770 207° Southwest 432 497 41,000  Level FlightAware
11:00PM 39.0640 -89.5260 206° Southwest 433 498 41,000  Level FlightAware
11:00PM 38.9970 -89.5700 207° Southwest 427 491 41,000  Level FlightAware
11:01PM 38.9290 -89.6130 206° Southwest 426 490 41,000  Level FlightAware
11:02PM 38.8380 -89.6710 206° Southwest 426 490 41,000  Level FlightAware
11:03PM 38.7840 -89.7040 205° Southwest 426 490 41,000  Level FlightAware
11:03PM 38.7130 -89.7490 206° Southwest 426 490 41,000  Level FlightAware
11:04PM 38.5910 -89.8300 207° Southwest 426 490 41,000  Level FlightAware
11:05PM 38.4910 -89.8930 206° Southwest 427 491 41,000  Level FlightAware
11:06PM 38.4160 -89.9400 206° Southwest 432 497 41,000  Level FlightAware
11:06PM 38.3570 -89.9770 206° Southwest 432 497 41,000  Level FlightAware
11:07PM 38.3020 -90.0120 207° Southwest 432 497 41,000  Level FlightAware
11:08PM 38.2100 -90.0690 206° Southwest 432 497 41,000  Level FlightAware
11:09PM 38.0990 -90.1410 207° Southwest 436 502 41,000  Level FlightAware
11:10PM 38.0110 -90.1950 206° Southwest 436 502 41,000  Level FlightAware
11:11PM 37.8860 -90.2730 206° Southwest 438 504 41,000  Level FlightAware
11:12PM 37.8080 -90.3210 206° Southwest 438 504 41,000  Level FlightAware
11:12PM 37.7530 -90.3550 206° Southwest 438 504 41,000  Level FlightAware
11:13PM 37.6780 -90.4010 206° Southwest 438 504 41,000  Level FlightAware
11:14PM 37.6220 -90.4360 206° Southwest 438 504 41,000  Level FlightAware
11:14PM 37.5500 -90.4800 206° Southwest 438 504 41,000  Level FlightAware
11:15PM 37.4970 -90.5130 206° Southwest 438 504 41,000  Level FlightAware
11:16PM 37.4350 -90.5510 206° Southwest 438 504 41,000  Level FlightAware
11:16PM 37.2480 -90.6670 206° Southwest 445 512 41,000  Level FlightAware
11:17PM 37.1690 -90.7150 206° Southwest 444 511 41,000  Level FlightAware
11:18PM 37.0950 -90.7600 206° Southwest 445 512 41,000  Level FlightAware
11:19PM 37.0130 -90.8100 206° Southwest 445 512 41,000  Level FlightAware
11:19PM 36.9360 -90.8570 206° Southwest 444 511 41,000  Level FlightAware
11:20PM 36.8540 -90.9050 205° Southwest 445 512 41,000  Level FlightAware
11:21PM 36.7740 -90.9490 204° Southwest 446 513 41,000  Level FlightAware
11:21PM 36.7080 -90.9860 204° Southwest 446 513 41,000  Level FlightAware
11:22PM 36.6170 -91.0370 204° Southwest 449 517 41,000  Level FlightAware
11:23PM 36.5390 -91.0810 204° Southwest 451 519 41,000  Level FlightAware
11:24PM 36.4580 -91.1270 205° Southwest 452 520 41,000  Level FlightAware
11:24PM 36.3760 -91.1730 204° Southwest 447 514 41,000  Level FlightAware
11:25PM 36.3090 -91.2110 205° Southwest 446 513 41,000  Level FlightAware
11:26PM 36.2310 -91.2540 204° Southwest 446 513 41,000  Level FlightAware
11:27PM 36.1130 -91.3190 204° Southwest 446 513 41,000  Level FlightAware
11:27PM 36.0730 -91.3410 204° Southwest 446 513 41,000  Level FlightAware
11:28PM 35.9590 -91.4050 204° Southwest 444 511 41,000  Level FlightAware
11:29PM 35.8770 -91.4500 204° Southwest 444 511 41,000  Level FlightAware
11:29PM 35.7970 -91.4940 204° Southwest 445 512 41,000  Level FlightAware
11:30PM 35.7250 -91.5340 204° Southwest 445 512 41,000  Level FlightAware
11:31PM 35.6220 -91.5900 204° Southwest 451 519 41,000  Level FlightAware
11:32PM 35.5640 -91.6220 204° Southwest 451 519 41,000  Level FlightAware
11:32PM 35.4860 -91.6640 204° Southwest 451 519 41,000  Level FlightAware
11:33PM 35.4310 -91.6950 205° Southwest 451 519 41,000  Level FlightAware
11:34PM 35.3520 -91.7380 204° Southwest 451 519 41,000  Level FlightAware
11:34PM 35.2940 -91.7700 204° Southwest 451 519 41,000  Level FlightAware
11:35PM 35.2140 -91.8130 204° Southwest 451 519 41,000  Level FlightAware
11:36PM 35.1560 -91.8450 204° Southwest 451 519 41,000  Level FlightAware
11:36PM 35.0960 -91.8770 204° Southwest 451 519 41,000  Level FlightAware
11:37PM 35.0210 -91.9180 204° Southwest 451 519 41,000  Level FlightAware
11:38PM 34.9610 -91.9500 204° Southwest 451 519 41,000  Level FlightAware
11:39PM 34.8820 -91.9940 205° Southwest 451 519 41,000  Level FlightAware
11:39PM 34.8220 -92.0260 204° Southwest 451 519 41,000  Level FlightAware
11:40PM 34.7620 -92.0590 204° Southwest 451 519 41,000  Level FlightAware
11:41PM 34.4953 -92.1942 204° Southwest 461 531 41,000  Level Memphis Center
11:42PM 34.3794 -92.2572 204° Southwest 461 531 41,000  Level Memphis Center
11:43PM 34.2594 -92.3222 204° Southwest 461 531 41,000  Level Memphis Center
11:44PM 34.1417 -92.3850 204° Southwest 461 531 41,000  Level Memphis Center
11:45PM 34.0133 -92.4547 204° Southwest 461 531 41,000  Level Memphis Center
11:46PM 33.8933 -92.5167 203° Southwest 461 531 41,000  Level Memphis Center
11:48PM 33.6139 -92.6597 203° Southwest 471 542 41,000  Level Fort Worth Center
11:49PM 33.4953 -92.7233 204° Southwest 471 542 41,000  Level Fort Worth Center
11:50PM 33.3867 -92.7764 202° Southwest 471 542 41,000  Level Fort Worth Center
11:51PM 33.2678 -92.8372 203° Southwest 471 542 41,000  Level Fort Worth Center
11:52PM 33.1489 -92.8981 203° Southwest 471 542 41,000  Level Fort Worth Center
11:53PM 33.0258 -92.9611 203° Southwest 471 542 41,000  Level Fort Worth Center
11:54PM 32.9050 -93.0217 203° Southwest 471 542 41,000  Level Fort Worth Center
11:55PM 32.7861 -93.0819 203° Southwest 471 542 41,000  Level Fort Worth Center
11:56PM 32.6650 -93.1444 203° Southwest 471 542 41,000  Level Fort Worth Center
11:57PM 32.5439 -93.2044 203° Southwest 471 542 41,000  Level Fort Worth Center
11:58PM 32.4269 -93.2639 203° Southwest 471 542 41,000  Level Fort Worth Center
12:04AM 31.7322 -93.6149 203° Southwest 454 522 41,000  Level FlightAware ADS-B
12:04AM 31.6597 -93.6507 203° Southwest 452 520 41,000  Level FlightAware ADS-B
12:05AM 31.5953 -93.6826 203° Southwest 452 520 41,000  Level FlightAware ADS-B
12:06AM 31.5256 -93.7170 203° Southwest 451 519 41,000  Level FlightAware ADS-B
12:06AM 31.4629 -93.7480 203° Southwest 451 519 41,000 -420 Level FlightAware ADS-B
12:07AM 31.4012 -93.7784 203° Southwest 440 506 40,600 -1,500 Descending FlightAware ADS-B
12:07AM 31.3334 -93.8116 203° Southwest 438 504 39,300 -2,160 Descending FlightAware ADS-B
12:08AM 31.2794 -93.8380 203° Southwest 435 501 38,300 -1,800 Descending FlightAware ADS-B
12:08AM 31.2538 -93.8528 206° Southwest 422 486 38,000 -1,320 Descending FlightAware ADS-B
12:08AM 31.2256 -93.8731 212° Southwest 413 475 37,600 -2,220 Descending FlightAware ADS-B
12:09AM 31.1805 -93.9136 218° Southwest 412 474 36,300 -2,820 Descending FlightAware ADS-B
12:09AM 31.1443 -93.9470 218° Southwest 414 476 35,100 -3,600 Descending FlightAware ADS-B
12:10AM 31.0972 -93.9907 218° Southwest 427 491 33,000 -4,260 Descending FlightAware ADS-B
12:10AM 31.0494 -94.0343 218° Southwest 444 511 30,800 -4,920 Descending FlightAware ADS-B
12:11AM 30.9989 -94.0809 218° Southwest 463 533 28,100 -4,560 Descending FlightAware ADS-B
12:11AM 30.9469 -94.1285 218° Southwest 468 539 26,200 -3,600 Descending FlightAware ADS-B
12:12AM 30.8968 -94.1745 218° Southwest 449 517 24,500 -3,600 Descending FlightAware ADS-B
12:12AM 30.8479 -94.2192 218° Southwest 437 503 22,600 -3,660 Descending FlightAware ADS-B
12:13AM 30.8006 -94.2626 218° Southwest 427 491 20,800 -4,080 Descending FlightAware ADS-B
12:13AM 30.7530 -94.3062 218° Southwest 433 498 18,500 -4,020 Descending FlightAware ADS-B
12:14AM 30.7058 -94.3495 218° Southwest 425 489 16,800 -3,120 Descending FlightAware ADS-B
12:14AM 30.6594 -94.3916 218° Southwest 418 481 15,400 -2,820 Descending FlightAware ADS-B
12:15AM 30.6141 -94.4328 218° Southwest 411 473 14,000 -2,760 Descending FlightAware ADS-B
12:15AM 30.5689 -94.4736 218° Southwest 405 466 12,600 -2,580 Descending FlightAware ADS-B
12:16AM 30.5242 -94.5144 218° Southwest 392 451 11,400 -1,680 Descending FlightAware ADS-B
12:16AM 30.4843 -94.5507 218° Southwest 333 383 10,900 -1,200 Descending FlightAware ADS-B
12:19AM 30.3138 -94.7032 217° Southwest 290 334 7,800 -1,200 Descending FlightAware ADS-B
12:19AM 30.2971 -94.7178 217° Southwest 289 333 7,500 -1,260 Descending FlightAware ADS-B
12:20AM 30.2477 -94.7610 217° Southwest 286 329 6,500 -1,260 Descending FlightAware ADS-B
12:20AM 30.2318 -94.7749 217° Southwest 284 327 6,200 -1,320 Descending FlightAware ADS-B
12:21AM 30.1846 -94.8163 217° Southwest 282 325 5,200 -1,320 Descending FlightAware ADS-B
12:21AM 30.1528 -94.8441 217° Southwest 277 319 4,600 -960 Descending FlightAware ADS-B
12:22AM 30.1069 -94.8841 217° Southwest 267 307 4,000 -540 Descending FlightAware ADS-B
12:23AM 30.0818 -94.9060 217° Southwest 244 281 4,000  Level FlightAware ADS-B
12:23AM 30.0550 -94.9292 217° Southwest 241 277 4,000  Level FlightAware ADS-B
12:24AM 30.0169 -94.9625 217° Southwest 233 268 4,000  Level FlightAware ADS-B
12:24AM 30.0039 -94.9740 217° Southwest 233 268 4,000  Level FlightAware ADS-B
12:24AM 29.9905 -94.9856 218° Southwest 222 255 4,000  Level FlightAware ADS-B
12:24AM 29.9882 -94.9880 222° Southwest 220 253 4,000  Level FlightAware ADS-B
12:24AM 29.9856 -94.9913 228° Southwest 218 251 4,000  Level FlightAware ADS-B
12:25AM 29.9838 -94.9941 233° Southwest 215 247 4,000  Level FlightAware ADS-B
12:25AM 29.9823 -94.9967 236° Southwest 214 246 4,000  Level FlightAware ADS-B
12:25AM 29.9809 -94.9999 243° Southwest 211 243 4,000 -600 Level FlightAware ADS-B
12:25AM 29.9789 -95.0072 255° West 210 242 3,900 -720 Descending FlightAware ADS-B
12:25AM 29.9774 -95.0182 264° West 209 241 3,800 -660 Descending FlightAware ADS-B
12:25AM 29.9770 -95.0284 267° West 208 239 3,700 -960 Descending FlightAware ADS-B
12:25AM 29.9769 -95.0394 269° West 207 238 3,500 -720 Descending FlightAware ADS-B
12:25AM 29.9771 -95.0560 271° West 206 237 3,400 -420 Descending FlightAware ADS-B
12:26AM 29.9773 -95.0723 271° West 199 229 3,300 -300 Descending FlightAware ADS-B
12:26AM 29.9775 -95.1051 270° West 195 224 3,200 -540 Descending FlightAware ADS-B
12:27AM 29.9776 -95.1364 270° West 189 217 2,800 -960 Descending FlightAware ADS-B
12:27AM 29.9775 -95.1519 270° West 190 219 2,500 -1,020 Descending FlightAware ADS-B
12:27AM 29.9777 -95.1791 271° West 176 203 2,100 -900 Descending FlightAware ADS-B
12:28AM 29.9776 -95.2021 270° West 170 196 1,700 -840 Descending FlightAware ADS-B
12:28AM 29.9776 -95.2047 270° West 151 174 1,700 -720 Level FlightAware ADS-B
12:28AM 29.9776 -95.2166 270° West 148 170 1,500 -780 Descending FlightAware ADS-B
12:28AM 29.9776 -95.2288 270° West 146 168 1,300 -780 Descending FlightAware ADS-B
12:29AM 29.9776 -95.2404 270° West 144 166 1,100 -840 Descending FlightAware ADS-B
12:29AM 29.9776 -95.2514 270° West 142 163 900 -900 Descending FlightAware ADS-B
12:29AM 29.9776 -95.2565 270° West 141 162 800 -840 Descending FlightAware ADS-B
12:29AM 29.9776 -95.2676 270° West 139 160 600 -600 Descending FlightAware ADS-B
12:30AM 29.9776 -95.2788 270° West 137 158 500 -600 Descending FlightAware ADS-B
12:30AM 29.9776 -95.2897 270° West 137 158 300 -840 Descending FlightAware ADS-B
12:30AM 29.9776 -95.3008 270° West 138 159 100 -840 Descending FlightAware ADS-B
12:38AM 29.9833 -95.3333 291° West  Level FlightAware Approximate